Time;durP1;ratioP1;P1;durP2;ratioP2;P2;SDS_P1;SDS_P2;PMS_P1;PMS_P2;Temp;Humidity;BMP_temperature;BMP_pressure;BME280_temperature;BME280_humidity;BME280_pressure;Samples;Min_cycle;Max_cycle;Signal;HPM_P1;HPM_P2
2022/02/06 00:01:32;;;;;;;5.97;3.65;;;;;;;;;;5031988;28;20023;-37
2022/02/06 00:03:58;;;;;;;6.45;3.70;;;;;;;;;;5032257;28;20033;-37
2022/02/06 00:06:24;;;;;;;6.43;4.20;;;;;;;;;;5032081;28;20521;-37
2022/02/06 00:08:49;;;;;;;5.95;3.75;;;;;;;;;;5032112;28;20460;-37
2022/02/06 00:11:15;;;;;;;5.50;3.60;;;;;;;;;;5031947;28;20483;-37
2022/02/06 00:13:40;;;;;;;5.85;3.15;;;;;;;;;;5031866;28;20030;-37
2022/02/06 00:16:08;;;;;;;9.90;3.67;;;;;;;;;;5031968;28;20230;-37
2022/02/06 00:18:33;;;;;;;5.63;4.60;;;;;;;;;;5031815;28;20022;-38
2022/02/06 00:21:04;;;;;;;4.45;3.00;;;;;;;;;;5031730;28;20113;-38
2022/02/06 00:23:31;;;;;;;4.28;2.78;;;;;;;;;;5032089;28;20037;-37
2022/02/06 00:28:56;;;;;;;6.28;3.47;;;;;;;;;;5031147;28;20037;-37
2022/02/06 00:31:35;;;;;;;5.55;3.28;;;;;;;;;;5031092;28;20487;-37
2022/02/06 00:39:10;;;;;;;9.05;4.03;;;;;;;;;;5031079;28;20032;-37
2022/02/06 00:41:36;;;;;;;6.95;3.92;;;;;;;;;;5031139;28;20140;-37
2022/02/06 00:44:05;;;;;;;5.90;4.35;;;;;;;;;;5031464;28;20029;-37
2022/02/06 00:46:31;;;;;;;6.93;3.83;;;;;;;;;;5031040;28;20026;-37
2022/02/06 00:49:02;;;;;;;11.20;3.47;;;;;;;;;;5031037;28;20358;-38
2022/02/06 00:51:38;;;;;;;4.72;3.10;;;;;;;;;;5031157;28;20442;-37
2022/02/06 00:54:04;;;;;;;7.20;3.38;;;;;;;;;;5031098;28;20053;-38
2022/02/06 00:56:30;;;;;;;8.32;3.55;;;;;;;;;;5029822;28;20479;-38
2022/02/06 00:58:56;;;;;;;6.15;3.50;;;;;;;;;;5030823;28;20025;-37
2022/02/06 01:01:21;;;;;;;6.85;3.70;;;;;;;;;;5030893;28;20017;-37
2022/02/06 01:03:47;;;;;;;4.82;3.20;;;;;;;;;;5030830;28;20042;-37
2022/02/06 01:06:12;;;;;;;5.57;3.60;;;;;;;;;;5031452;28;20029;-37
2022/02/06 01:08:38;;;;;;;5.38;3.13;;;;;;;;;;5030700;28;20497;-37
2022/02/06 01:11:08;;;;;;;4.88;3.35;;;;;;;;;;5030914;28;20151;-37
2022/02/06 01:16:29;;;;;;;7.45;3.05;;;;;;;;;;5030947;28;20561;-38
2022/02/06 01:19:05;;;;;;;7.47;5.22;;;;;;;;;;5029426;28;20033;-38
2022/02/06 01:21:46;;;;;;;5.72;3.40;;;;;;;;;;5031011;28;20388;-37
2022/02/06 01:24:23;;;;;;;5.13;2.80;;;;;;;;;;5030846;28;20099;-37
2022/02/06 01:26:54;;;;;;;5.93;2.78;;;;;;;;;;5030592;28;20124;-37
2022/02/06 01:34:13;;;;;;;4.75;3.33;;;;;;;;;;5030888;28;20388;-37
2022/02/06 01:36:44;;;;;;;5.88;2.80;;;;;;;;;;5030869;28;20045;-38
2022/02/06 01:39:37;;;;;;;4.72;2.60;;;;;;;;;;5033345;28;20022;-37
2022/02/06 01:42:02;;;;;;;;;;;;;;;;;;5033083;28;20052;-37
2022/02/06 01:44:47;;;;;;;6.32;2.90;;;;;;;;;;5034410;28;19912;-37
2022/02/06 02:48:03;;;;;;;6.07;2.75;;;;;;;;;;5032839;28;20026;-37
2022/02/06 02:50:31;;;;;;;4.13;2.42;;;;;;;;;;5032188;28;20041;-37
2022/02/06 02:53:26;;;;;;;8.57;4.20;;;;;;;;;;5032698;28;20026;-37
2022/02/06 02:58:42;;;;;;;5.38;3.28;;;;;;;;;;5032876;28;20030;-38
2022/02/06 03:03:39;;;;;;;5.95;2.85;;;;;;;;;;5032651;28;20055;-38
2022/02/06 03:06:05;;;;;;;6.45;3.30;;;;;;;;;;5032946;28;20033;-37
2022/02/06 03:08:33;;;;;;;4.53;2.90;;;;;;;;;;5032433;28;20021;-38
2022/02/06 03:11:02;;;;;;;5.15;3.05;;;;;;;;;;5032662;28;20042;-37
2022/02/06 03:18:45;;;;;;;4.22;2.70;;;;;;;;;;5032261;28;20029;-37
2022/02/06 03:21:17;;;;;;;3.30;2.30;;;;;;;;;;5032507;28;20029;-37
2022/02/06 03:23:49;;;;;;;4.20;2.47;;;;;;;;;;5030939;28;20048;-37
2022/02/06 03:26:14;;;;;;;5.78;3.30;;;;;;;;;;5032230;28;20029;-39
2022/02/06 03:28:40;;;;;;;5.05;3.00;;;;;;;;;;5032124;28;20029;-37
2022/02/06 03:31:06;;;;;;;3.58;2.75;;;;;;;;;;5032008;28;20111;-37
2022/02/06 03:33:32;;;;;;;6.65;3.25;;;;;;;;;;5032177;28;20119;-37
2022/02/06 03:35:57;;;;;;;5.53;3.05;;;;;;;;;;5031865;28;20521;-37
2022/02/06 03:38:23;;;;;;;5.93;3.38;;;;;;;;;;5031998;28;20028;-38
2022/02/06 03:40:57;;;;;;;4.38;3.13;;;;;;;;;;5032281;28;20468;-37
2022/02/06 03:44:15;;;;;;;3.53;2.83;;;;;;;;;;5031779;28;20042;-37
2022/02/06 03:46:16;;;;;;;6.68;2.88;;;;;;;;;;5031311;28;20045;-37
2022/02/06 03:51:38;;;;;;;5.22;2.92;;;;;;;;;;5029459;28;20056;-38
2022/02/06 03:54:04;;;;;;;5.47;2.65;;;;;;;;;;5032013;28;20452;-37
2022/02/06 03:56:31;;;;;;;9.57;3.53;;;;;;;;;;5031630;28;20025;-38
2022/02/06 03:58:57;;;;;;;3.67;2.33;;;;;;;;;;5031783;28;20014;-37
2022/02/06 04:01:22;;;;;;;5.43;3.13;;;;;;;;;;5031700;28;20511;-37
2022/02/06 04:03:48;;;;;;;5.07;3.53;;;;;;;;;;5031761;28;20029;-37
2022/02/06 04:06:13;;;;;;;3.40;2.47;;;;;;;;;;5031928;28;20041;-37
2022/02/06 04:08:40;;;;;;;4.70;3.42;;;;;;;;;;5031868;28;20455;-37
2022/02/06 04:11:10;;;;;;;5.32;2.88;;;;;;;;;;5031402;28;20041;-37
2022/02/06 04:13:40;;;;;;;7.28;3.53;;;;;;;;;;5031497;28;20087;-37
2022/02/06 04:16:13;;;;;;;5.85;2.60;;;;;;;;;;5031428;28;20040;-37
2022/02/06 04:18:51;;;;;;;6.93;2.85;;;;;;;;;;5031269;28;20482;-37
2022/02/06 04:21:16;;;;;;;5.72;2.60;;;;;;;;;;5031411;28;20499;-37
2022/02/06 04:23:42;;;;;;;2.88;2.08;;;;;;;;;;5031589;28;20041;-37
2022/02/06 04:26:07;;;;;;;5.60;2.92;;;;;;;;;;5031311;28;20491;-37
2022/02/06 04:28:33;;;;;;;4.28;2.65;;;;;;;;;;5031268;28;20376;-37
2022/02/06 04:30:59;;;;;;;4.97;2.95;;;;;;;;;;5031072;28;20048;-38
2022/02/06 04:33:24;;;;;;;3.83;2.78;;;;;;;;;;5031416;28;20026;-37
2022/02/06 04:35:53;;;;;;;5.95;3.13;;;;;;;;;;5031425;28;20036;-37
2022/02/06 05:15:13;;;;;;;2.97;2.08;;;;;;;;;;5034931;28;20434;-37
2022/02/06 05:28:08;;;;;;;6.30;2.38;;;;;;;;;;5034535;28;20418;-38
2022/02/06 05:30:49;;;;;;;7.68;3.22;;;;;;;;;;5034727;28;20055;-37
2022/02/06 05:33:15;;;;;;;6.28;3.35;;;;;;;;;;5034658;28;20045;-37
2022/02/06 05:35:40;;;;;;;6.63;2.83;;;;;;;;;;5034355;28;20017;-37
2022/02/06 05:38:05;;;;;;;4.95;2.95;;;;;;;;;;5034171;28;20031;-37
2022/02/06 05:40:31;;;;;;;5.50;2.47;;;;;;;;;;5034155;28;20088;-37
2022/02/06 05:42:56;;;;;;;6.63;4.18;;;;;;;;;;5034110;28;20049;-37
2022/02/06 05:45:22;;;;;;;8.95;3.83;;;;;;;;;;5034123;28;20129;-37
2022/02/06 05:47:48;;;;;;;5.05;3.40;;;;;;;;;;5033860;28;20571;-37
2022/02/06 05:50:14;;;;;;;5.50;4.05;;;;;;;;;;5034244;28;20029;-37
2022/02/06 05:52:40;;;;;;;8.60;2.97;;;;;;;;;;5034316;28;20087;-37
2022/02/06 05:55:06;;;;;;;3.85;3.10;;;;;;;;;;5033879;28;20576;-37
2022/02/06 05:57:32;;;;;;;4.18;3.10;;;;;;;;;;5034093;28;20041;-37
2022/02/06 05:59:57;;;;;;;5.75;2.75;;;;;;;;;;5034150;28;20076;-37
2022/02/06 06:02:22;;;;;;;5.72;3.00;;;;;;;;;;5033773;28;20387;-37
2022/02/06 06:04:48;;;;;;;4.65;2.35;;;;;;;;;;5033763;28;20026;-37
2022/02/06 06:07:13;;;;;;;6.95;3.10;;;;;;;;;;5033673;28;20036;-38
2022/02/06 06:09:39;;;;;;;5.32;3.08;;;;;;;;;;5033633;28;20036;-38
2022/02/06 06:12:04;;;;;;;4.88;2.20;;;;;;;;;;5033696;28;20095;-37
2022/02/06 06:14:31;;;;;;;5.63;3.45;;;;;;;;;;5033837;28;20025;-37
2022/02/06 06:16:56;;;;;;;5.53;3.45;;;;;;;;;;5033687;28;20030;-37
2022/02/06 06:19:22;;;;;;;5.88;3.53;;;;;;;;;;5033563;28;20171;-37
2022/02/06 06:21:53;;;;;;;4.22;2.65;;;;;;;;;;5033624;28;20212;-37
2022/02/06 06:24:21;;;;;;;5.38;2.90;;;;;;;;;;5033454;28;20025;-37
2022/02/06 06:26:46;;;;;;;4.43;2.95;;;;;;;;;;5033326;28;20017;-37
2022/02/06 06:29:12;;;;;;;4.18;2.95;;;;;;;;;;5033557;28;20056;-37
2022/02/06 06:31:37;;;;;;;4.75;2.75;;;;;;;;;;5033342;28;20030;-37
2022/02/06 06:34:03;;;;;;;3.05;2.80;;;;;;;;;;5033467;28;20029;-37
2022/02/06 06:36:31;;;;;;;4.80;3.33;;;;;;;;;;5033149;28;20025;-37
2022/02/06 06:38:56;;;;;;;3.85;2.42;;;;;;;;;;5033368;28;20044;-37
2022/02/06 06:41:22;;;;;;;4.35;2.85;;;;;;;;;;5033009;28;20026;-38
2022/02/06 06:43:47;;;;;;;4.03;2.70;;;;;;;;;;5033289;28;20037;-37
2022/02/06 06:46:13;;;;;;;4.05;3.25;;;;;;;;;;5033340;28;20041;-37
2022/02/06 06:48:39;;;;;;;6.60;2.60;;;;;;;;;;5033190;28;20040;-37
2022/02/06 06:51:05;;;;;;;6.13;2.80;;;;;;;;;;5032786;28;20250;-37
2022/02/06 06:53:31;;;;;;;5.25;3.72;;;;;;;;;;5032830;28;20025;-37
2022/02/06 06:56:02;;;;;;;3.72;2.50;;;;;;;;;;5031555;28;20056;-37
2022/02/06 06:58:31;;;;;;;2.75;2.30;;;;;;;;;;5032648;28;20025;-37
2022/02/06 07:03:25;;;;;;;5.57;2.75;;;;;;;;;;5032709;28;20027;-37
2022/02/06 07:05:51;;;;;;;4.60;3.08;;;;;;;;;;5032806;28;20188;-37
2022/02/06 07:08:17;;;;;;;5.20;2.78;;;;;;;;;;5032605;28;20380;-37
2022/02/06 07:10:43;;;;;;;6.38;3.70;;;;;;;;;;5032740;28;20087;-37
2022/02/06 07:13:09;;;;;;;8.82;3.17;;;;;;;;;;5032980;28;20443;-37
2022/02/06 07:15:34;;;;;;;6.57;3.25;;;;;;;;;;5032473;28;20480;-37
2022/02/06 07:18:00;;;;;;;8.35;2.58;;;;;;;;;;5032293;28;20063;-37
2022/02/06 07:20:25;;;;;;;5.88;3.53;;;;;;;;;;5032379;28;20025;-37
2022/02/06 07:22:51;;;;;;;4.68;3.25;;;;;;;;;;5032233;28;20129;-37
2022/02/06 07:25:16;;;;;;;5.38;3.38;;;;;;;;;;5032216;28;20029;-37
2022/02/06 07:27:47;;;;;;;5.25;3.05;;;;;;;;;;5032134;28;20031;-37
2022/02/06 07:30:12;;;;;;;9.40;3.13;;;;;;;;;;5032131;28;20041;-37
2022/02/06 07:32:38;;;;;;;6.07;3.72;;;;;;;;;;5032145;28;20016;-37
2022/02/06 07:35:04;;;;;;;7.40;4.25;;;;;;;;;;5030678;28;20120;-37
2022/02/06 07:37:30;;;;;;;9.90;4.15;;;;;;;;;;5031875;28;20049;-37
2022/02/06 07:39:55;;;;;;;8.43;3.55;;;;;;;;;;5031944;28;20507;-37
2022/02/06 07:42:21;;;;;;;9.57;5.07;;;;;;;;;;5031904;28;20067;-37
2022/02/06 07:44:56;;;;;;;12.55;4.70;;;;;;;;;;5030668;28;20033;-37
2022/02/06 07:47:23;;;;;;;5.13;3.70;;;;;;;;;;5032021;28;20041;-37
2022/02/06 07:49:51;;;;;;;3.92;2.75;;;;;;;;;;5031667;28;20124;-37
2022/02/06 07:52:18;;;;;;;4.40;2.58;;;;;;;;;;5032406;28;20041;-37
2022/02/06 07:54:44;;;;;;;3.50;2.55;;;;;;;;;;5031988;28;20422;-38
2022/02/06 07:57:09;;;;;;;7.68;3.17;;;;;;;;;;5032244;28;20033;-37
2022/02/06 07:59:35;;;;;;;7.07;2.33;;;;;;;;;;5031760;28;20018;-37
2022/02/06 08:02:01;;;;;;;3.63;3.22;;;;;;;;;;5031746;28;20037;-37
2022/02/06 08:04:27;;;;;;;6.85;3.05;;;;;;;;;;5031667;28;20022;-37
2022/02/06 08:06:54;;;;;;;6.78;3.47;;;;;;;;;;5031972;28;20383;-37
2022/02/06 08:09:26;;;;;;;3.65;2.85;;;;;;;;;;5031517;28;20013;-37
2022/02/06 08:11:52;;;;;;;5.68;3.30;;;;;;;;;;5031693;28;20033;-37
2022/02/06 08:17:03;;;;;;;3.40;2.55;;;;;;;;;;5029986;28;20034;-37
2022/02/06 08:19:28;;;;;;;7.70;3.50;;;;;;;;;;5031423;28;20117;-37
2022/02/06 08:21:54;;;;;;;6.50;3.90;;;;;;;;;;5031546;28;20037;-37
2022/02/06 08:24:19;;;;;;;5.30;3.25;;;;;;;;;;5031481;28;20048;-37
2022/02/06 08:26:45;;;;;;;4.55;2.95;;;;;;;;;;5031205;28;20099;-37
2022/02/06 08:29:11;;;;;;;6.82;3.35;;;;;;;;;;5031276;28;20053;-37
2022/02/06 08:31:37;;;;;;;7.60;3.30;;;;;;;;;;5031166;28;20046;-37
2022/02/06 08:34:03;;;;;;;6.63;3.80;;;;;;;;;;5031153;28;20021;-37
2022/02/06 08:36:29;;;;;;;5.00;2.63;;;;;;;;;;5031188;28;20025;-37
2022/02/06 08:38:55;;;;;;;6.20;3.45;;;;;;;;;;5031104;28;20080;-37
2022/02/06 08:41:20;;;;;;;5.93;3.28;;;;;;;;;;5030984;28;20120;-37
2022/02/06 08:43:46;;;;;;;4.10;2.92;;;;;;;;;;5031129;28;20037;-37
2022/02/06 08:46:11;;;;;;;5.38;2.97;;;;;;;;;;5031083;28;20033;-37
2022/02/06 08:48:38;;;;;;;6.60;3.13;;;;;;;;;;5032992;28;20025;-37
2022/02/06 08:51:06;;;;;;;9.38;3.38;;;;;;;;;;5035034;28;20041;-37
2022/02/06 08:53:32;;;;;;;5.65;3.20;;;;;;;;;;5035054;28;20108;-37
2022/02/06 08:55:58;;;;;;;5.28;2.75;;;;;;;;;;5035027;28;20488;-37
2022/02/06 08:58:23;;;;;;;7.63;3.25;;;;;;;;;;5034921;28;20032;-37
2022/02/06 09:00:49;;;;;;;5.47;2.90;;;;;;;;;;5034960;28;20040;-37
2022/02/06 09:03:14;;;;;;;8.05;2.95;;;;;;;;;;5035017;28;20029;-37
2022/02/06 09:05:42;;;;;;;5.53;2.42;;;;;;;;;;5035082;28;20038;-37
2022/02/06 09:08:08;;;;;;;5.82;2.47;;;;;;;;;;5034798;28;20079;-37
2022/02/06 09:10:34;;;;;;;4.97;2.95;;;;;;;;;;5035044;28;20439;-37
2022/02/06 09:13:00;;;;;;;5.18;3.40;;;;;;;;;;5034914;28;20018;-37
2022/02/06 09:15:25;;;;;;;6.30;3.90;;;;;;;;;;5034992;28;20036;-37
2022/02/06 09:17:51;;;;;;;9.88;4.07;;;;;;;;;;5034579;28;20067;-37
2022/02/06 09:20:17;;;;;;;5.03;3.22;;;;;;;;;;5033457;28;20527;-38
2022/02/06 09:22:43;;;;;;;4.78;3.20;;;;;;;;;;5034556;28;20104;-37
2022/02/06 09:25:10;;;;;;;5.50;3.72;;;;;;;;;;5034493;28;20067;-37
2022/02/06 09:27:36;;;;;;;6.53;3.60;;;;;;;;;;5034477;28;20026;-37
2022/02/06 09:30:06;;;;;;;7.68;3.42;;;;;;;;;;5034244;28;20087;-37
2022/02/06 09:37:25;;;;;;;6.32;3.53;;;;;;;;;;5034335;28;20026;-37
2022/02/06 09:39:51;;;;;;;4.47;3.08;;;;;;;;;;5034208;28;20037;-37
2022/02/06 09:42:18;;;;;;;7.45;3.58;;;;;;;;;;5033368;28;20064;-37
2022/02/06 09:44:47;;;;;;;7.90;3.38;;;;;;;;;;5033282;28;20034;-37
2022/02/06 09:47:13;;;;;;;6.38;3.50;;;;;;;;;;5032908;28;20069;-37
2022/02/06 09:49:40;;;;;;;11.50;3.38;;;;;;;;;;5033103;28;20075;-37
2022/02/06 09:52:06;;;;;;;8.40;4.18;;;;;;;;;;5032752;28;20037;-37
2022/02/06 09:54:32;;;;;;;5.78;3.97;;;;;;;;;;5033083;28;20030;-37
2022/02/06 09:57:01;;;;;;;6.43;3.17;;;;;;;;;;5032666;28;20037;-37
2022/02/06 09:59:28;;;;;;;4.97;3.17;;;;;;;;;;5032740;28;20376;-37
2022/02/06 10:01:56;;;;;;;11.02;2.97;;;;;;;;;;5032404;28;20021;-37
2022/02/06 10:04:24;;;;;;;4.00;3.05;;;;;;;;;;5033012;28;20680;-37
2022/02/06 10:06:50;;;;;;;4.13;2.78;;;;;;;;;;5032870;28;20029;-37
2022/02/06 10:09:18;;;;;;;5.10;3.63;;;;;;;;;;5032978;28;20029;-37
2022/02/06 10:11:46;;;;;;;6.80;3.47;;;;;;;;;;5032777;28;20041;-37
2022/02/06 10:14:12;;;;;;;11.32;5.03;;;;;;;;;;5032845;28;20038;-37
2022/02/06 10:16:39;;;;;;;5.35;3.28;;;;;;;;;;5032359;28;20018;-37
2022/02/06 10:19:05;;;;;;;6.95;4.32;;;;;;;;;;5032361;28;20021;-37
2022/02/06 10:21:32;;;;;;;7.90;4.57;;;;;;;;;;5032482;28;20032;-37
2022/02/06 10:24:15;;;;;;;10.45;5.75;;;;;;;;;;5032234;28;20087;-37
2022/02/06 10:26:52;;;;;;;15.15;7.22;;;;;;;;;;5032413;28;20037;-37
2022/02/06 10:31:54;;;;;;;10.52;5.68;;;;;;;;;;5032516;28;20083;-37
2022/02/06 10:34:24;;;;;;;14.48;5.35;;;;;;;;;;5032247;28;20021;-37
2022/02/06 10:36:50;;;;;;;13.50;5.32;;;;;;;;;;5032096;28;20126;-37
2022/02/06 10:39:16;;;;;;;11.05;5.05;;;;;;;;;;5032313;28;20056;-37
2022/02/06 10:41:45;;;;;;;7.63;4.53;;;;;;;;;;4983442;28;1408938;-37
2022/02/06 10:44:11;;;;;;;13.45;5.82;;;;;;;;;;5033343;28;20037;-37
2022/02/06 10:46:54;;;;;;;10.13;4.50;;;;;;;;;;5032940;28;20051;-37
2022/02/06 10:49:20;;;;;;;6.63;3.93;;;;;;;;;;5032960;28;20048;-37
2022/02/06 10:51:49;;;;;;;6.57;4.40;;;;;;;;;;5032921;28;20484;-37
2022/02/06 10:54:17;;;;;;;7.65;4.68;;;;;;;;;;5032817;28;20510;-37
2022/02/06 10:57:01;;;;;;;9.88;4.57;;;;;;;;;;5033074;28;20029;-37
2022/02/06 10:59:28;;;;;;;6.70;3.70;;;;;;;;;;5032823;28;20044;-37
2022/02/06 11:01:54;;;;;;;8.13;4.38;;;;;;;;;;5032948;28;20047;-37
2022/02/06 11:04:29;;;;;;;6.82;3.78;;;;;;;;;;5032940;28;20471;-38
2022/02/06 11:07:09;;;;;;;9.10;4.85;;;;;;;;;;5032428;28;20029;-37
2022/02/06 11:09:34;;;;;;;9.15;4.50;;;;;;;;;;5032838;28;20037;-37
2022/02/06 11:12:01;;;;;;;7.80;4.57;;;;;;;;;;5031878;28;20116;-37
2022/02/06 11:14:30;;;;;;;7.70;4.22;;;;;;;;;;5032457;28;20048;-37
2022/02/06 11:16:57;;;;;;;14.23;5.57;;;;;;;;;;5032321;28;20463;-37
2022/02/06 11:19:23;;;;;;;11.45;5.13;;;;;;;;;;5032971;28;20029;-37
2022/02/06 11:22:10;;;;;;;19.48;8.00;;;;;;;;;;5032125;28;20498;-37
2022/02/06 11:24:37;;;;;;;10.82;5.90;;;;;;;;;;5031045;28;20381;-37
2022/02/06 11:27:07;;;;;;;18.17;7.63;;;;;;;;;;5032112;28;20032;-38
2022/02/06 11:29:32;;;;;;;14.98;7.28;;;;;;;;;;5032191;28;20037;-37
2022/02/06 11:31:58;;;;;;;17.73;7.97;;;;;;;;;;5032269;28;20091;-38
2022/02/06 11:34:24;;;;;;;19.95;6.72;;;;;;;;;;5032153;28;20361;-38
2022/02/06 11:45:21;;;;;;;15.63;7.47;;;;;;;;;;5032165;28;20033;-37
2022/02/06 11:47:52;;;;;;;19.98;8.05;;;;;;;;;;5032169;28;20018;-37
2022/02/06 11:50:18;;;;;;;19.70;7.60;;;;;;;;;;5031691;28;20044;-37
2022/02/06 11:52:57;;;;;;;28.13;10.93;;;;;;;;;;5031780;28;20094;-37
2022/02/06 11:55:33;;;;;;;17.75;8.00;;;;;;;;;;5032043;28;20091;-37
2022/02/06 11:58:18;;;;;;;18.15;8.57;;;;;;;;;;5031571;28;20021;-37
2022/02/06 12:00:44;;;;;;;20.45;8.98;;;;;;;;;;5031616;28;20029;-37
2022/02/06 12:03:13;;;;;;;20.85;9.38;;;;;;;;;;5031561;28;20164;-37
2022/02/06 12:05:58;;;;;;;14.10;7.72;;;;;;;;;;5031621;28;20030;-37
2022/02/06 12:08:24;;;;;;;21.63;8.98;;;;;;;;;;5031617;28;20396;-37
2022/02/06 12:10:59;;;;;;;24.60;9.30;;;;;;;;;;5029988;28;20029;-37
2022/02/06 12:13:31;;;;;;;23.23;9.98;;;;;;;;;;5031505;28;20083;-37
2022/02/06 12:16:03;;;;;;;27.23;11.00;;;;;;;;;;5031304;28;20033;-37
2022/02/06 12:18:28;;;;;;;25.48;10.85;;;;;;;;;;5031378;28;20075;-37
2022/02/06 12:20:56;;;;;;;21.85;9.57;;;;;;;;;;5031605;28;20052;-37
2022/02/06 12:23:34;;;;;;;23.15;9.75;;;;;;;;;;5031283;28;20466;-37
2022/02/06 12:26:00;;;;;;;23.27;8.70;;;;;;;;;;5031143;28;20095;-37
2022/02/06 12:28:28;;;;;;;26.65;12.52;;;;;;;;;;5031291;28;20075;-37
2022/02/06 12:30:56;;;;;;;24.42;10.32;;;;;;;;;;5031678;28;20045;-38
2022/02/06 12:33:42;;;;;;;33.95;14.68;;;;;;;;;;5031188;28;20032;-37
2022/02/06 12:39:12;;;;;;;24.60;11.60;;;;;;;;;;5031244;28;20040;-37
2022/02/06 12:41:44;;;;;;;33.97;11.48;;;;;;;;;;5031174;28;20044;-37
2022/02/06 12:44:14;;;;;;;28.30;12.18;;;;;;;;;;5031069;28;20493;-37
2022/02/06 12:46:40;;;;;;;30.70;12.65;;;;;;;;;;5031340;28;20029;-37
2022/02/06 12:49:05;;;;;;;32.53;12.70;;;;;;;;;;5031011;28;20039;-37
2022/02/06 12:51:32;;;;;;;30.92;14.35;;;;;;;;;;5031284;28;20041;-37
2022/02/06 12:54:05;;;;;;;30.60;14.02;;;;;;;;;;5031242;28;20041;-37
2022/02/06 12:56:34;;;;;;;;;;;;;;;;;;5031778;28;20037;-37
2022/02/06 12:59:00;;;;;;;33.67;12.88;;;;;;;;;;5031001;28;19905;-37
2022/02/06 13:01:37;;;;;;;39.33;14.80;;;;;;;;;;5030949;28;20036;-37
2022/02/06 13:04:03;;;;;;;37.22;16.20;;;;;;;;;;5030815;28;20476;-37
2022/02/06 13:06:39;;;;;;;41.72;17.92;;;;;;;;;;5029710;28;20024;-37
2022/02/06 13:09:15;;;;;;;33.33;15.02;;;;;;;;;;5030764;28;20037;-37
2022/02/06 13:11:46;;;;;;;45.03;17.17;;;;;;;;;;5031101;28;20044;-37
2022/02/06 13:14:24;;;;;;;34.80;16.65;;;;;;;;;;5030848;28;20053;-37
2022/02/06 13:17:02;;;;;;;48.92;18.55;;;;;;;;;;5031081;28;20395;-37
2022/02/06 13:22:08;;;;;;;40.70;17.27;;;;;;;;;;5030962;28;20375;-37
2022/02/06 13:38:02;;;;;;;50.55;19.92;;;;;;;;;;5034204;28;20029;-37
2022/02/06 13:40:31;;;;;;;48.83;20.75;;;;;;;;;;5034567;28;20391;-37
2022/02/06 13:42:57;;;;;;;57.35;23.70;;;;;;;;;;5034016;28;20068;-37
2022/02/06 13:45:25;;;;;;;54.10;22.40;;;;;;;;;;5034099;28;20112;-38
2022/02/06 13:47:51;;;;;;;60.38;25.25;;;;;;;;;;5034068;28;20025;-37
2022/02/06 13:50:17;;;;;;;55.88;24.92;;;;;;;;;;5033931;28;20116;-37
2022/02/06 13:52:45;;;;;;;57.40;24.20;;;;;;;;;;5034057;28;20032;-37
2022/02/06 13:55:12;;;;;;;53.20;23.17;;;;;;;;;;5034186;28;20033;-37
2022/02/06 13:57:39;;;;;;;47.60;20.48;;;;;;;;;;5034181;28;20104;-37
2022/02/06 14:00:09;;;;;;;68.78;25.77;;;;;;;;;;5033895;28;20017;-37
2022/02/06 14:02:48;;;;;;;51.75;22.35;;;;;;;;;;5033948;28;20037;-37
2022/02/06 14:05:15;;;;;;;53.28;23.48;;;;;;;;;;5034084;28;20083;-37
2022/02/06 14:07:41;;;;;;;68.35;26.88;;;;;;;;;;5033702;28;20029;-37
2022/02/06 14:10:13;;;;;;;59.65;26.50;;;;;;;;;;5033513;28;20386;-37
2022/02/06 14:12:47;;;;;;;63.70;26.38;;;;;;;;;;5033632;28;20045;-37
2022/02/06 14:15:20;;;;;;;61.30;26.80;;;;;;;;;;5033562;28;20071;-37
2022/02/06 14:17:49;;;;;;;60.40;24.27;;;;;;;;;;5033821;28;20067;-37
2022/02/06 14:20:18;;;;;;;65.95;26.52;;;;;;;;;;5033483;28;20018;-37
2022/02/06 14:22:45;;;;;;;56.75;26.67;;;;;;;;;;5033744;28;20030;-37
2022/02/06 14:25:15;;;;;;;74.97;25.58;;;;;;;;;;5033408;28;20900;-37
2022/02/06 14:27:41;;;;;;;49.65;23.15;;;;;;;;;;5033883;28;20079;-37
2022/02/06 14:30:17;;;;;;;55.72;26.83;;;;;;;;;;5033477;28;20017;-37
2022/02/06 14:32:56;;;;;;;47.33;22.27;;;;;;;;;;5033523;28;20666;-37
2022/02/06 14:35:27;;;;;;;48.20;22.77;;;;;;;;;;5033260;28;20562;-37
2022/02/06 14:37:58;;;;;;;56.15;25.40;;;;;;;;;;5033180;28;20026;-37
2022/02/06 14:43:14;;;;;;;60.58;24.10;;;;;;;;;;5032869;28;20042;-38
2022/02/06 14:45:50;;;;;;;74.78;26.52;;;;;;;;;;5031874;28;20116;-38
2022/02/06 14:48:17;;;;;;;67.63;28.73;;;;;;;;;;5033091;28;20030;-37
2022/02/06 14:50:47;;;;;;;65.90;27.30;;;;;;;;;;5032873;28;20434;-37
2022/02/06 14:53:15;;;;;;;;;;;;;;;;;;5033559;28;20053;-37
2022/02/06 14:55:43;;;;;;;67.32;29.27;;;;;;;;;;5032722;28;20379;-37
2022/02/06 14:58:09;;;;;;;75.82;29.58;;;;;;;;;;5032744;28;20072;-37
2022/02/06 15:00:36;;;;;;;70.07;28.08;;;;;;;;;;5032846;28;20053;-37
2022/02/06 15:03:02;;;;;;;72.00;27.90;;;;;;;;;;5032667;28;20029;-37
2022/02/06 15:05:28;;;;;;;87.95;33.30;;;;;;;;;;5032660;28;20048;-37
2022/02/06 15:07:54;;;;;;;79.82;31.15;;;;;;;;;;5032526;28;20029;-37
2022/02/06 15:10:20;;;;;;;77.63;31.58;;;;;;;;;;5032803;28;20033;-37
2022/02/06 15:12:46;;;;;;;76.93;30.13;;;;;;;;;;5032564;28;20116;-37
2022/02/06 15:15:17;;;;;;;73.90;30.17;;;;;;;;;;5032702;28;20096;-37
2022/02/06 15:17:43;;;;;;;66.93;28.98;;;;;;;;;;5032624;28;20500;-39
2022/02/06 15:20:10;;;;;;;64.15;28.08;;;;;;;;;;5032266;28;20104;-38
2022/02/06 15:22:42;;;;;;;57.67;27.15;;;;;;;;;;5032567;28;20033;-37
2022/02/06 15:25:08;;;;;;;83.03;31.38;;;;;;;;;;5032174;28;20120;-37
2022/02/06 15:27:35;;;;;;;74.53;30.15;;;;;;;;;;5032611;28;20172;-37
2022/02/06 15:30:00;;;;;;;70.43;28.08;;;;;;;;;;5032279;28;20364;-37
2022/02/06 15:32:27;;;;;;;74.45;29.23;;;;;;;;;;5032441;28;20041;-37
2022/02/06 15:34:55;;;;;;;67.60;26.52;;;;;;;;;;5032091;28;20030;-37
2022/02/06 15:37:28;;;;;;;69.35;30.50;;;;;;;;;;5031994;28;20017;-37
2022/02/06 15:39:59;;;;;;;62.13;25.75;;;;;;;;;;5032251;28;20037;-37
2022/02/06 15:42:25;;;;;;;72.07;31.05;;;;;;;;;;5031825;28;20107;-37
2022/02/06 15:44:54;;;;;;;80.85;28.27;;;;;;;;;;5031891;28;20037;-37
2022/02/06 15:47:23;;;;;;;77.35;33.85;;;;;;;;;;5031852;28;20044;-37
2022/02/06 15:49:49;;;;;;;70.72;28.77;;;;;;;;;;5031897;28;20021;-38
2022/02/06 15:52:15;;;;;;;72.75;31.75;;;;;;;;;;5031543;28;20056;-37
2022/02/06 15:54:40;;;;;;;77.43;30.60;;;;;;;;;;5032093;28;20017;-37
2022/02/06 15:57:08;;;;;;;87.47;33.55;;;;;;;;;;5031289;28;20557;-37
2022/02/06 15:59:34;;;;;;;70.97;31.70;;;;;;;;;;5031909;28;20514;-37
2022/02/06 16:02:00;;;;;;;79.45;34.35;;;;;;;;;;5031838;28;20135;-37
2022/02/06 16:04:26;;;;;;;84.05;34.53;;;;;;;;;;5031696;28;20472;-37
2022/02/06 16:06:53;;;;;;;82.45;32.92;;;;;;;;;;5031759;28;20030;-37
2022/02/06 16:09:28;;;;;;;71.32;31.35;;;;;;;;;;5030251;28;20026;-37
2022/02/06 16:11:54;;;;;;;88.43;33.40;;;;;;;;;;5031315;28;20052;-37
2022/02/06 16:14:20;;;;;;;88.55;32.80;;;;;;;;;;5030136;28;20357;-37
2022/02/06 16:16:46;;;;;;;70.70;31.25;;;;;;;;;;5031451;28;20036;-37
2022/02/06 16:19:11;;;;;;;80.82;30.73;;;;;;;;;;5031603;28;20058;-37
2022/02/06 16:21:36;;;;;;;87.70;32.13;;;;;;;;;;5031686;28;20033;-37
2022/02/06 16:24:02;;;;;;;75.88;32.78;;;;;;;;;;5031238;28;20364;-38
2022/02/06 16:26:28;;;;;;;81.00;34.00;;;;;;;;;;5031387;28;20311;-37
2022/02/06 16:28:55;;;;;;;87.82;34.85;;;;;;;;;;5031518;28;20032;-38
2022/02/06 16:31:21;;;;;;;74.18;32.58;;;;;;;;;;5031510;28;20106;-38
2022/02/06 16:33:47;;;;;;;82.70;32.70;;;;;;;;;;5031507;28;20478;-37
2022/02/06 16:36:13;;;;;;;81.15;32.42;;;;;;;;;;5031018;28;20065;-37
2022/02/06 16:38:39;;;;;;;80.57;34.33;;;;;;;;;;5031489;28;20056;-37
2022/02/06 16:41:06;;;;;;;83.63;32.00;;;;;;;;;;5031304;28;20492;-37
2022/02/06 16:43:32;;;;;;;84.65;31.48;;;;;;;;;;5031117;28;20037;-38
2022/02/06 16:45:57;;;;;;;86.25;32.97;;;;;;;;;;5031378;28;20040;-38
2022/02/06 16:48:23;;;;;;;78.72;32.88;;;;;;;;;;5030995;28;20021;-38
2022/02/06 16:50:50;;;;;;;92.03;33.15;;;;;;;;;;5030877;28;20488;-37
2022/02/06 16:53:17;;;;;;;81.53;31.67;;;;;;;;;;5030930;28;20052;-37
2022/02/06 16:55:43;;;;;;;79.38;31.38;;;;;;;;;;5030960;28;20029;-37
2022/02/06 16:58:08;;;;;;;79.72;32.63;;;;;;;;;;5031066;28;20026;-37
2022/02/06 17:00:34;;;;;;;79.93;32.35;;;;;;;;;;5031015;28;20022;-37
2022/02/06 17:03:00;;;;;;;75.70;28.63;;;;;;;;;;5031101;28;20127;-37
2022/02/06 17:05:26;;;;;;;75.60;29.33;;;;;;;;;;5030918;28;20135;-37
2022/02/06 17:07:54;;;;;;;86.63;31.83;;;;;;;;;;5030826;28;20079;-37
2022/02/06 17:10:20;;;;;;;72.32;31.73;;;;;;;;;;5034087;28;20079;-37
2022/02/06 17:12:45;;;;;;;71.95;32.35;;;;;;;;;;5034883;28;20037;-37
2022/02/06 17:15:11;;;;;;;82.20;35.03;;;;;;;;;;5034723;28;20025;-37
2022/02/06 17:17:37;;;;;;;65.22;30.95;;;;;;;;;;5034948;28;20108;-37
2022/02/06 17:20:03;;;;;;;67.75;28.48;;;;;;;;;;5034590;28;20126;-37
2022/02/06 17:22:28;;;;;;;64.45;29.63;;;;;;;;;;5034712;28;20057;-37
2022/02/06 17:24:54;;;;;;;67.55;27.38;;;;;;;;;;5034714;28;20092;-37
2022/02/06 17:27:22;;;;;;;75.78;30.50;;;;;;;;;;5034785;28;20071;-37
2022/02/06 17:29:48;;;;;;;70.13;26.98;;;;;;;;;;5034461;28;20037;-37
2022/02/06 17:32:14;;;;;;;62.05;26.98;;;;;;;;;;5034524;28;20219;-37
2022/02/06 17:34:39;;;;;;;73.00;27.60;;;;;;;;;;5034764;28;20057;-37
2022/02/06 17:37:05;;;;;;;68.38;27.33;;;;;;;;;;5034285;28;20021;-37
2022/02/06 17:39:30;;;;;;;64.05;29.02;;;;;;;;;;5034323;28;20029;-37